createdAt,value
2018-12-04T00:04:20.191Z,76.20
2018-12-04T00:09:11.082Z,76.20
2018-12-04T00:14:01.973Z,76.20
2018-12-04T00:18:52.873Z,76.30
2018-12-04T00:23:44.586Z,76.30
2018-12-04T00:28:35.490Z,76.30
2018-12-04T00:33:26.390Z,76.30
2018-12-04T00:38:17.339Z,76.20
2018-12-04T00:43:08.244Z,76.20
2018-12-04T00:47:59.138Z,76.10
2018-12-04T00:52:50.026Z,76.10
2018-12-04T00:57:41.723Z,76.10
2018-12-04T01:02:32.622Z,76.10
2018-12-04T01:07:23.562Z,76.00
2018-12-04T01:12:14.458Z,76.00
2018-12-04T01:17:05.350Z,76.00
2018-12-04T01:21:56.982Z,76.20
2018-12-04T01:26:48.674Z,76.20
2018-12-04T01:31:39.573Z,76.20
2018-12-04T01:36:30.466Z,76.10
2018-12-04T01:41:21.434Z,76.00
2018-12-04T01:46:12.333Z,76.00
2018-12-04T01:51:03.225Z,76.10
2018-12-04T01:55:54.177Z,76.20
2018-12-04T02:00:45.065Z,76.20
2018-12-04T02:05:35.953Z,76.10
2018-12-04T02:10:27.605Z,76.20
2018-12-04T02:15:19.284Z,76.20
2018-12-04T02:20:10.177Z,76.20
2018-12-04T02:25:01.060Z,76.20
2018-12-04T02:29:51.949Z,76.20
2018-12-04T02:34:42.853Z,76.30
2018-12-04T02:39:33.785Z,76.20
2018-12-04T02:44:24.681Z,76.30
2018-12-04T02:49:15.588Z,76.30
2018-12-04T02:54:06.843Z,76.20
2018-12-04T02:58:57.745Z,76.20
2018-12-04T03:03:48.687Z,76.30
2018-12-04T03:08:39.572Z,76.60
2018-12-04T03:13:30.460Z,76.40
2018-12-04T03:18:22.089Z,76.00
2018-12-04T03:23:13.790Z,75.80
2018-12-04T03:28:04.693Z,75.80
2018-12-04T03:32:55.605Z,75.80
2018-12-04T03:37:46.544Z,75.50
2018-12-04T03:42:37.434Z,75.50
2018-12-04T03:47:28.337Z,75.50
2018-12-04T03:52:19.974Z,75.30
2018-12-04T03:57:10.866Z,75.30
2018-12-04T04:02:01.850Z,75.20
2018-12-04T04:06:52.739Z,75.20
2018-12-04T04:11:43.634Z,75.10
2018-12-04T04:16:35.283Z,75.00
2018-12-04T04:21:26.196Z,75.00
2018-12-04T04:26:17.843Z,74.80
2018-12-04T04:31:08.797Z,74.80
2018-12-04T04:35:59.693Z,74.80
2018-12-04T04:40:50.591Z,74.70
2018-12-04T04:45:42.229Z,74.50
2018-12-04T04:50:33.917Z,74.40
2018-12-04T04:55:24.819Z,74.40
2018-12-04T05:00:15.723Z,74.50
2018-12-04T05:05:06.677Z,74.40
2018-12-04T05:09:57.573Z,74.40
2018-12-04T05:14:48.464Z,74.40
2018-12-04T05:19:39.431Z,74.40
2018-12-04T05:24:31.070Z,74.40
2018-12-04T05:29:21.955Z,74.10
2018-12-04T05:34:12.857Z,74.40
2018-12-04T05:39:03.823Z,74.40
2018-12-04T05:43:54.721Z,74.50
2018-12-04T05:48:45.604Z,74.40
2018-12-04T05:53:37.289Z,74.40
2018-12-04T05:58:28.178Z,74.30
2018-12-04T06:03:19.073Z,74.30
2018-12-04T06:08:10.809Z,74.30
2018-12-04T06:13:02.441Z,74.30
2018-12-04T06:17:54.144Z,74.30
2018-12-04T06:22:45.032Z,74.20
2018-12-04T06:27:35.981Z,74.30
2018-12-04T06:32:26.877Z,74.20
2018-12-04T06:37:17.769Z,74.20
2018-12-04T06:42:08.734Z,74.10
2018-12-04T06:46:59.634Z,74.10
2018-12-04T06:51:50.555Z,74.10
2018-12-04T06:56:41.440Z,74.00
2018-12-04T07:01:32.341Z,74.00
2018-12-04T07:06:23.981Z,73.90
2018-12-04T07:11:15.627Z,73.90
2018-12-04T07:16:07.257Z,73.90
2018-12-04T07:20:58.890Z,73.80
2018-12-04T07:25:50.529Z,73.90
2018-12-04T07:30:42.174Z,73.90
2018-12-04T07:35:33.081Z,73.90
2018-12-04T07:40:24.837Z,73.90
2018-12-04T07:45:15.765Z,73.90
2018-12-04T07:50:06.881Z,73.80
2018-12-04T07:54:57.783Z,73.80
2018-12-04T07:59:49.425Z,73.80
2018-12-04T08:04:41.079Z,73.90
2018-12-04T08:09:31.977Z,73.90
2018-12-04T08:14:23.631Z,73.70
2018-12-04T08:19:14.607Z,73.70
2018-12-04T08:24:05.506Z,73.70
2018-12-04T08:28:56.407Z,73.70
2018-12-04T08:33:47.433Z,73.70
2018-12-04T08:38:38.355Z,73.60
2018-12-04T08:43:29.240Z,73.50
2018-12-04T08:48:20.146Z,73.50
2018-12-04T08:53:11.070Z,73.40
2018-12-04T08:58:01.963Z,73.40
2018-12-04T09:02:53.597Z,73.50
2018-12-04T09:07:45.246Z,73.00
2018-12-04T09:12:36.882Z,73.50
2018-12-04T09:17:28.551Z,73.50
2018-12-04T09:22:19.433Z,73.50
2018-12-04T09:27:10.360Z,73.50
2018-12-04T09:32:01.993Z,73.60
2018-12-04T09:36:53.637Z,73.60
2018-12-04T09:41:44.542Z,73.60
2018-12-04T09:46:36.194Z,73.70
2018-12-04T09:51:27.093Z,73.70
2018-12-04T09:56:18.799Z,73.50
2018-12-04T10:01:09.696Z,73.50
2018-12-04T10:06:00.592Z,73.40
2018-12-04T10:10:51.489Z,73.30
2018-12-04T10:15:43.118Z,73.40
2018-12-04T10:20:34.778Z,73.20
2018-12-04T10:25:25.747Z,73.20
2018-12-04T10:30:16.642Z,72.90
2018-12-04T10:35:07.537Z,72.90
2018-12-04T10:39:58.453Z,72.80
2018-12-04T10:44:49.449Z,73.00
2018-12-04T10:49:41.081Z,72.30
2018-12-04T10:54:32.738Z,72.40
2018-12-04T10:59:23.659Z,72.30
2018-12-04T11:04:14.545Z,72.40
2018-12-04T11:09:05.569Z,72.80
2018-12-04T11:13:56.456Z,72.50
2018-12-04T11:18:47.345Z,72.40
2018-12-04T11:23:38.237Z,71.90
2018-12-04T11:28:29.864Z,71.30
2018-12-04T11:33:21.536Z,71.10
2018-12-04T11:38:12.449Z,71.00
2018-12-04T11:43:03.501Z,71.00
2018-12-04T11:47:54.397Z,71.20
2018-12-04T11:52:45.343Z,71.40
2018-12-04T11:57:36.270Z,70.20
2018-12-04T12:02:27.336Z,70.30
2018-12-04T12:07:20.679Z,69.90
2018-12-04T12:12:09.167Z,69.80
2018-12-04T12:17:00.803Z,69.10
2018-12-04T12:21:52.442Z,68.80
2018-12-04T12:26:44.069Z,68.10
2018-12-04T12:31:35.813Z,67.80
2018-12-04T12:36:27.493Z,67.70
2018-12-04T12:41:18.385Z,67.70
2018-12-04T12:46:09.281Z,67.60
2018-12-04T12:51:00.918Z,67.60
2018-12-04T12:55:52.556Z,67.30
2018-12-04T13:00:44.193Z,67.00
2018-12-04T13:05:35.860Z,65.90
2018-12-04T13:10:26.767Z,65.90
2018-12-04T13:15:17.674Z,65.70
2018-12-04T13:20:08.586Z,66.00
2018-12-04T13:25:00.234Z,65.60
2018-12-04T13:29:51.144Z,65.50
2018-12-04T13:34:42.063Z,65.70
2018-12-04T13:39:32.980Z,65.80
2018-12-04T13:44:23.877Z,65.70
2018-12-04T13:49:14.775Z,66.00
2018-12-04T13:54:05.675Z,67.40
2018-12-04T13:58:56.594Z,67.40
2018-12-04T14:03:47.486Z,67.50
2018-12-04T14:08:38.384Z,67.60
2018-12-04T14:13:30.061Z,67.90
2018-12-04T14:18:21.855Z,67.90
2018-12-04T14:23:11.879Z,68.20
2018-12-04T14:28:02.777Z,68.40
2018-12-04T14:32:54.451Z,68.80
2018-12-04T14:37:45.377Z,68.80
2018-12-04T14:42:36.283Z,68.80
2018-12-04T14:47:27.213Z,68.70
2018-12-04T14:52:18.190Z,68.90
2018-12-04T14:57:09.831Z,68.90
2018-12-04T15:02:00.809Z,68.90
2018-12-04T15:06:52.529Z,69.10
2018-12-04T15:11:43.420Z,69.00
2018-12-04T15:16:34.331Z,69.10
2018-12-04T15:21:25.297Z,69.20
2018-12-04T15:26:16.221Z,69.30
2018-12-04T15:31:07.206Z,69.30
2018-12-04T15:35:58.045Z,69.30
2018-12-04T15:40:49.007Z,69.40
2018-12-04T15:45:40.655Z,69.40
2018-12-04T15:50:32.394Z,69.40
2018-12-04T15:55:24.077Z,69.50
2018-12-04T16:00:15.020Z,69.40
2018-12-04T16:05:07.467Z,69.40
2018-12-04T16:09:58.468Z,69.40
2018-12-04T16:14:49.366Z,69.50
2018-12-04T16:19:40.295Z,69.50
2018-12-04T16:24:31.235Z,69.60
2018-12-04T16:29:22.171Z,69.60
2018-12-04T16:34:13.273Z,69.50
2018-12-04T16:39:04.165Z,69.60
2018-12-04T16:43:55.075Z,69.40
2018-12-04T16:48:45.995Z,69.60
2018-12-04T16:53:36.971Z,69.50
2018-12-04T16:58:27.922Z,69.60
2018-12-04T17:03:18.823Z,69.50
2018-12-04T17:08:10.468Z,69.70
2018-12-04T17:13:02.167Z,69.50
2018-12-04T17:17:53.061Z,69.50
2018-12-04T17:22:43.949Z,69.70
2018-12-04T17:27:34.841Z,69.60
2018-12-04T17:32:25.749Z,69.50
2018-12-04T17:37:17.381Z,69.60
2018-12-04T17:42:08.284Z,69.60
2018-12-04T17:46:59.207Z,69.60
2018-12-04T17:51:50.101Z,69.70
2018-12-04T17:56:41.000Z,69.60
2018-12-04T18:01:32.004Z,69.60
2018-12-04T18:06:23.701Z,69.60
2018-12-04T18:11:14.600Z,69.70
2018-12-04T18:16:05.523Z,69.70
2018-12-04T18:20:56.421Z,69.70
2018-12-04T18:25:47.340Z,69.70
2018-12-04T18:30:38.248Z,69.70
2018-12-04T18:35:29.148Z,69.70
2018-12-04T18:40:20.938Z,69.80
2018-12-04T18:45:11.843Z,69.70
2018-12-04T18:50:02.743Z,69.70
2018-12-04T18:54:53.698Z,69.70
2018-12-04T18:59:44.609Z,69.70
2018-12-04T19:04:35.490Z,69.80
2018-12-04T19:09:26.505Z,69.80
2018-12-04T19:14:18.168Z,69.80
2018-12-04T19:19:09.146Z,69.80
2018-12-04T19:24:00.784Z,69.80
2018-12-04T19:28:51.960Z,69.80
2018-12-04T19:33:42.893Z,69.80
2018-12-04T19:38:33.884Z,69.80
2018-12-04T19:43:24.784Z,69.80
2018-12-04T19:48:15.676Z,69.80
2018-12-04T19:53:07.645Z,69.80
2018-12-04T19:57:58.638Z,69.80
2018-12-04T20:02:49.634Z,69.90
2018-12-04T20:07:40.642Z,69.90
2018-12-04T20:12:31.566Z,69.90
2018-12-04T20:17:22.481Z,70.00
2018-12-04T20:22:13.436Z,70.00
2018-12-04T20:27:04.368Z,70.00
2018-12-04T20:31:56.046Z,70.00
2018-12-04T20:36:46.972Z,70.00
2018-12-04T20:41:37.963Z,70.00
2018-12-04T20:46:28.958Z,70.00
2018-12-04T20:51:20.754Z,70.00
2018-12-04T20:56:11.684Z,70.00
2018-12-04T21:01:02.676Z,70.00
2018-12-04T21:05:53.714Z,70.00
2018-12-04T21:10:44.636Z,70.00
2018-12-04T21:15:35.581Z,70.00
2018-12-04T21:20:26.511Z,70.00
2018-12-04T21:25:17.476Z,70.00
2018-12-04T21:30:15.745Z,70.00
2018-12-04T21:35:11.896Z,70.00
2018-12-04T21:40:09.131Z,70.00
2018-12-04T21:45:06.359Z,70.00
2018-12-04T21:49:57.281Z,70.00
2018-12-04T21:54:48.271Z,70.10
2018-12-04T21:59:39.254Z,70.10
2018-12-04T22:04:30.176Z,70.00
2018-12-04T22:09:21.093Z,70.10
2018-12-04T22:14:12.004Z,70.10
2018-12-04T22:19:02.921Z,70.20
2018-12-04T22:23:53.838Z,70.10
2018-12-04T22:28:44.770Z,70.10
2018-12-04T22:33:36.437Z,70.30
2018-12-04T22:38:27.361Z,70.10
2018-12-04T22:43:18.343Z,70.10
2018-12-04T22:48:09.256Z,70.10
2018-12-04T22:53:00.160Z,70.10
2018-12-04T22:57:51.109Z,70.10
2018-12-04T23:02:42.778Z,70.00
2018-12-04T23:07:33.807Z,70.00
2018-12-04T23:12:25.006Z,70.00
2018-12-04T23:17:15.921Z,70.00
2018-12-04T23:22:07.578Z,70.00
2018-12-04T23:26:58.546Z,69.90
2018-12-04T23:31:49.479Z,69.90
2018-12-04T23:36:41.160Z,69.90
2018-12-04T23:41:32.161Z,69.90
2018-12-04T23:46:23.162Z,69.90
2018-12-04T23:51:14.825Z,69.90
2018-12-04T23:56:05.824Z,69.90
